createdAt,value
2019-04-04T00:02:09.073Z,8.00
2019-04-04T00:04:37.916Z,8.00
2019-04-04T00:07:06.833Z,8.00
2019-04-04T00:09:35.745Z,7.90
2019-04-04T00:12:06.131Z,7.90
2019-04-04T00:14:35.829Z,7.90
2019-04-04T00:17:04.734Z,7.90
2019-04-04T00:19:33.646Z,7.90
2019-04-04T00:22:02.934Z,7.90
2019-04-04T00:24:33.118Z,7.90
2019-04-04T00:27:02.176Z,7.90
2019-04-04T00:29:31.082Z,7.80
2019-04-04T00:31:59.985Z,7.90
2019-04-04T00:34:29.002Z,7.90
2019-04-04T00:36:57.902Z,7.80
2019-04-04T00:39:26.984Z,7.80
2019-04-04T00:41:55.986Z,7.80
2019-04-04T00:44:24.902Z,7.80
2019-04-04T00:46:53.811Z,7.70
2019-04-04T00:49:22.697Z,7.70
2019-04-04T00:51:51.603Z,7.70
2019-04-04T00:54:20.501Z,7.70
2019-04-04T00:56:49.350Z,7.70
2019-04-04T00:59:18.301Z,7.70
2019-04-04T01:01:47.282Z,7.70
2019-04-04T01:04:16.177Z,7.60
2019-04-04T01:06:45.146Z,7.50
2019-04-04T01:09:14.157Z,7.50
2019-04-04T01:11:43.050Z,7.40
2019-04-04T01:14:12.029Z,7.40
2019-04-04T01:16:41.015Z,7.40
2019-04-04T01:19:10.420Z,7.40
2019-04-04T01:21:39.623Z,7.50
2019-04-04T01:24:08.606Z,7.50
2019-04-04T01:26:37.551Z,7.50
2019-04-04T01:29:10.184Z,7.50
2019-04-04T01:31:37.098Z,7.40
2019-04-04T01:34:05.943Z,7.50
2019-04-04T01:36:34.841Z,7.50
2019-04-04T01:39:05.334Z,7.50
2019-04-04T01:41:36.323Z,7.40
2019-04-04T01:44:05.645Z,7.40
2019-04-04T01:46:35.021Z,7.40
2019-04-04T01:49:04.122Z,7.40
2019-04-04T01:51:33.308Z,7.30
2019-04-04T01:54:02.514Z,7.30
2019-04-04T01:56:31.637Z,7.20
2019-04-04T01:59:00.733Z,7.30
2019-04-04T02:01:29.825Z,7.30
2019-04-04T02:03:58.970Z,7.30
2019-04-04T02:06:28.720Z,7.20
2019-04-04T02:08:58.370Z,7.20
2019-04-04T02:11:27.557Z,7.10
2019-04-04T02:13:56.740Z,7.10
2019-04-04T02:16:25.842Z,7.00
2019-04-04T02:18:55.022Z,7.00
2019-04-04T02:21:24.193Z,6.90
2019-04-04T02:23:53.309Z,6.80
2019-04-04T02:26:22.469Z,6.80
2019-04-04T02:28:51.657Z,6.80
2019-04-04T02:31:21.875Z,6.80
2019-04-04T02:33:51.134Z,6.80
2019-04-04T02:36:20.325Z,6.80
2019-04-04T02:39:09.419Z,6.80
2019-04-04T02:41:38.593Z,6.70
2019-04-04T02:44:07.790Z,6.70
2019-04-04T02:46:36.967Z,6.70
2019-04-04T02:49:06.181Z,6.70
2019-04-04T02:51:40.027Z,6.70
2019-04-04T02:54:06.291Z,6.70
2019-04-04T02:56:36.325Z,6.70
2019-04-04T02:59:05.711Z,6.70
2019-04-04T03:01:34.896Z,6.70
2019-04-04T03:04:04.062Z,6.70
2019-04-04T03:06:33.298Z,6.60
2019-04-04T03:09:02.913Z,6.60
2019-04-04T03:11:32.083Z,6.60
2019-04-04T03:14:03.853Z,6.50
2019-04-04T03:16:32.074Z,6.50
2019-04-04T03:19:01.262Z,6.50
2019-04-04T03:21:30.428Z,6.50
2019-04-04T03:23:59.601Z,6.50
2019-04-04T03:26:28.947Z,6.50
2019-04-04T03:28:58.111Z,6.50
2019-04-04T03:31:27.292Z,6.50
2019-04-04T03:33:56.464Z,6.50
2019-04-04T03:36:25.639Z,6.50
2019-04-04T03:38:54.805Z,6.40
2019-04-04T03:41:24.017Z,6.40
2019-04-04T03:43:53.179Z,6.40
2019-04-04T03:46:22.345Z,6.30
2019-04-04T03:48:51.553Z,6.30
2019-04-04T03:51:20.712Z,6.30
2019-04-04T03:53:56.054Z,6.30
2019-04-04T03:56:25.150Z,6.20
2019-04-04T03:58:54.315Z,6.20
2019-04-04T04:01:23.501Z,6.20
2019-04-04T04:03:55.354Z,6.20
2019-04-04T04:06:23.493Z,6.20
2019-04-04T04:08:54.807Z,6.20
2019-04-04T04:11:23.403Z,6.20
2019-04-04T04:13:52.801Z,6.20
2019-04-04T04:16:21.894Z,6.10
2019-04-04T04:18:53.920Z,6.10
2019-04-04T04:21:21.842Z,6.10
2019-04-04T04:23:51.000Z,6.00
2019-04-04T04:26:20.167Z,6.00
2019-04-04T04:28:52.181Z,6.00
2019-04-04T04:31:20.159Z,6.00
2019-04-04T04:33:52.302Z,6.00
2019-04-04T04:36:21.479Z,6.00
2019-04-04T04:38:50.638Z,6.00
2019-04-04T04:41:20.452Z,6.00
2019-04-04T04:43:50.718Z,6.00
2019-04-04T04:46:20.265Z,6.00
2019-04-04T04:48:52.226Z,6.00
2019-04-04T04:51:21.414Z,6.00
2019-04-04T04:53:53.810Z,6.00
2019-04-04T04:56:22.970Z,6.00
2019-04-04T04:58:52.058Z,6.10
2019-04-04T05:01:21.250Z,6.10
2019-04-04T05:03:50.840Z,6.00
2019-04-04T05:06:20.286Z,6.10
2019-04-04T05:08:49.578Z,6.10
2019-04-04T05:11:19.100Z,6.10
2019-04-04T05:13:49.090Z,6.20
2019-04-04T05:16:18.650Z,6.20
2019-04-04T05:18:48.275Z,6.20
2019-04-04T05:21:24.808Z,6.20
2019-04-04T05:23:48.475Z,6.20
2019-04-04T05:26:17.726Z,6.20
2019-04-04T05:28:46.832Z,6.20
2019-04-04T05:31:17.871Z,6.20
2019-04-04T05:33:46.851Z,6.30
2019-04-04T05:36:16.221Z,6.30
2019-04-04T05:38:47.156Z,6.30
2019-04-04T05:41:16.546Z,6.30
2019-04-04T05:43:45.870Z,6.40
2019-04-04T05:46:16.805Z,6.50
2019-04-04T05:48:45.858Z,6.50
2019-04-04T05:51:15.239Z,6.50
2019-04-04T05:53:45.267Z,6.50
2019-04-04T05:56:15.157Z,6.50
2019-04-04T05:58:45.119Z,6.60
2019-04-04T06:01:15.566Z,6.60
2019-04-04T06:03:46.921Z,6.70
2019-04-04T06:06:15.607Z,6.70
2019-04-04T06:08:44.774Z,6.70
2019-04-04T06:11:13.881Z,6.70
2019-04-04T06:13:42.974Z,6.70
2019-04-04T06:16:12.074Z,6.70
2019-04-04T06:18:43.003Z,6.70
2019-04-04T06:21:11.995Z,6.80
2019-04-04T06:23:41.175Z,6.80
2019-04-04T06:26:10.294Z,6.90
2019-04-04T06:28:39.401Z,7.00
2019-04-04T06:31:08.568Z,7.00
2019-04-04T06:33:37.734Z,7.00
2019-04-04T06:36:06.925Z,7.10
2019-04-04T06:38:36.019Z,7.20
2019-04-04T06:41:05.158Z,7.30
2019-04-04T06:43:34.323Z,7.30
2019-04-04T06:46:03.486Z,7.30
2019-04-04T06:48:33.815Z,7.40
2019-04-04T06:51:03.150Z,7.50
2019-04-04T06:53:34.401Z,7.50
2019-04-04T06:56:03.564Z,7.60
2019-04-04T06:58:32.739Z,7.60
2019-04-04T07:01:01.842Z,7.70
2019-04-04T07:03:31.006Z,7.80
2019-04-04T07:06:00.193Z,7.90
2019-04-04T07:08:29.576Z,7.90
2019-04-04T07:11:02.712Z,8.00
2019-04-04T07:13:41.409Z,8.10
2019-04-04T07:16:06.996Z,8.20
2019-04-04T07:18:31.525Z,8.20
2019-04-04T07:21:03.466Z,8.30
2019-04-04T07:23:31.528Z,8.30
2019-04-04T07:26:00.714Z,8.40
2019-04-04T07:28:31.031Z,8.50
2019-04-04T07:31:01.585Z,8.60
2019-04-04T07:33:31.399Z,8.60
2019-04-04T07:36:00.574Z,8.70
2019-04-04T07:38:29.969Z,8.80
2019-04-04T07:40:59.166Z,8.90
2019-04-04T07:43:28.298Z,9.00
2019-04-04T07:45:59.898Z,9.20
2019-04-04T07:48:28.632Z,9.20
2019-04-04T07:50:58.479Z,9.40
2019-04-04T07:53:28.786Z,9.40
2019-04-04T07:55:57.887Z,9.50
2019-04-04T07:58:27.126Z,9.70
2019-04-04T08:00:56.242Z,9.80
2019-04-04T08:03:25.414Z,9.90
2019-04-04T08:05:54.593Z,10.00
2019-04-04T08:08:23.783Z,10.10
2019-04-04T08:10:52.962Z,10.20
2019-04-04T08:13:22.133Z,10.40
2019-04-04T08:15:51.318Z,10.50
2019-04-04T08:18:20.502Z,10.70
2019-04-04T08:20:49.686Z,10.90
2019-04-04T08:23:18.972Z,11.00
2019-04-04T08:25:48.161Z,11.00
2019-04-04T08:28:17.343Z,11.20
2019-04-04T08:30:46.526Z,11.30
2019-04-04T08:33:15.717Z,11.50
2019-04-04T08:35:44.890Z,11.60
2019-04-04T08:38:14.061Z,11.70
2019-04-04T08:40:46.100Z,11.80
2019-04-04T08:43:14.079Z,12.00
2019-04-04T08:45:43.290Z,12.10
2019-04-04T08:48:12.496Z,12.20
2019-04-04T08:50:41.662Z,12.20
2019-04-04T08:53:10.866Z,12.30
2019-04-04T08:55:40.039Z,12.50
2019-04-04T08:58:09.237Z,12.60
2019-04-04T09:00:38.407Z,12.70
2019-04-04T09:03:07.610Z,12.80
2019-04-04T09:05:36.793Z,12.80
2019-04-04T09:08:05.962Z,12.90
2019-04-04T09:10:35.189Z,13.00
2019-04-04T09:13:04.363Z,13.10
2019-04-04T09:15:33.554Z,13.30
2019-04-04T09:18:02.754Z,13.40
2019-04-04T09:20:31.933Z,13.40
2019-04-04T09:23:01.125Z,13.50
2019-04-04T09:25:30.322Z,13.60
2019-04-04T09:27:59.492Z,14.00
2019-04-04T09:30:28.930Z,14.20
2019-04-04T09:32:58.101Z,14.20
2019-04-04T09:35:27.286Z,14.40
2019-04-04T09:37:56.474Z,14.50
2019-04-04T09:40:25.649Z,14.50
2019-04-04T09:42:54.856Z,14.60
2019-04-04T09:45:24.014Z,14.70
2019-04-04T09:47:53.224Z,14.90
2019-04-04T09:50:22.406Z,15.00
2019-04-04T09:52:51.795Z,14.90
2019-04-04T09:55:20.953Z,15.00
2019-04-04T09:57:50.047Z,14.90
2019-04-04T10:00:20.158Z,15.20
2019-04-04T10:02:49.337Z,15.30
2019-04-04T10:05:18.515Z,15.40
2019-04-04T10:07:47.709Z,15.50
2019-04-04T10:10:16.986Z,15.50
2019-04-04T10:12:46.193Z,15.50
2019-04-04T10:15:15.369Z,15.60
2019-04-04T10:17:44.839Z,15.70
2019-04-04T10:20:14.057Z,15.80
2019-04-04T10:22:43.241Z,15.90
2019-04-04T10:25:12.445Z,15.90
2019-04-04T10:27:41.610Z,15.80
2019-04-04T10:30:11.603Z,15.70
2019-04-04T10:32:40.775Z,15.60
2019-04-04T10:35:09.967Z,15.80
2019-04-04T10:37:39.161Z,15.90
2019-04-04T10:40:09.618Z,15.80
2019-04-04T10:42:38.722Z,15.90
2019-04-04T10:45:07.902Z,16.10
2019-04-04T10:47:37.101Z,16.40
2019-04-04T10:50:06.385Z,16.50
2019-04-04T10:52:35.554Z,16.40
2019-04-04T10:55:04.801Z,16.30
2019-04-04T10:57:33.970Z,16.40
2019-04-04T11:00:03.448Z,16.50
2019-04-04T11:02:32.622Z,16.70
2019-04-04T11:05:01.804Z,16.90
2019-04-04T11:07:30.988Z,16.40
2019-04-04T11:10:00.161Z,16.40
2019-04-04T11:12:29.542Z,16.60
2019-04-04T11:14:58.728Z,16.80
2019-04-04T11:17:27.989Z,16.70
2019-04-04T11:19:57.170Z,16.80
2019-04-04T11:22:26.596Z,17.00
2019-04-04T11:24:55.753Z,16.80
2019-04-04T11:27:24.930Z,16.80
2019-04-04T11:29:54.125Z,16.80
2019-04-04T11:32:23.313Z,16.80
2019-04-04T11:34:53.546Z,16.70
2019-04-04T11:37:23.177Z,16.80
2019-04-04T11:39:54.868Z,16.90
2019-04-04T11:42:23.186Z,16.90
2019-04-04T11:44:52.358Z,16.80
2019-04-04T11:47:21.533Z,16.90
2019-04-04T11:49:50.729Z,16.90
2019-04-04T11:52:19.913Z,17.20
2019-04-04T11:55:02.502Z,17.20
2019-04-04T11:57:31.671Z,17.20
2019-04-04T12:00:00.843Z,17.40
2019-04-04T12:02:32.785Z,17.70
2019-04-04T12:05:02.025Z,17.50
2019-04-04T12:07:31.233Z,17.20
2019-04-04T12:10:07.462Z,17.30
2019-04-04T12:12:31.234Z,17.70
2019-04-04T12:15:00.417Z,18.00
2019-04-04T12:17:29.815Z,18.00
2019-04-04T12:19:59.010Z,18.00
2019-04-04T12:22:28.290Z,18.00
2019-04-04T12:24:57.473Z,18.10
2019-04-04T12:27:26.603Z,18.20
2019-04-04T12:29:55.769Z,18.10
2019-04-04T12:32:24.961Z,18.20
2019-04-04T12:34:54.130Z,18.10
2019-04-04T12:37:23.313Z,18.10
2019-04-04T12:39:52.494Z,17.80
2019-04-04T12:42:21.670Z,17.70
2019-04-04T12:44:50.868Z,17.60
2019-04-04T12:47:20.064Z,17.50
2019-04-04T12:49:49.279Z,17.30
2019-04-04T12:52:18.497Z,17.60
2019-04-04T12:54:47.691Z,17.80
2019-04-04T12:57:16.881Z,17.60
2019-04-04T12:59:46.066Z,17.20
2019-04-04T13:02:15.277Z,16.90
2019-04-04T13:04:44.451Z,17.10
2019-04-04T13:07:13.637Z,17.00
2019-04-04T13:09:42.829Z,16.90
2019-04-04T13:12:12.014Z,17.10
2019-04-04T13:14:41.146Z,16.90
2019-04-04T13:17:10.333Z,16.70
2019-04-04T13:19:39.510Z,16.40
2019-04-04T13:22:08.704Z,16.30
2019-04-04T13:24:37.886Z,16.20
2019-04-04T13:27:07.065Z,16.20
2019-04-04T13:29:36.237Z,16.10
2019-04-04T13:32:05.427Z,16.40
2019-04-04T13:34:34.596Z,16.50
2019-04-04T13:37:03.814Z,16.50
2019-04-04T13:39:32.984Z,16.40
2019-04-04T13:42:02.162Z,16.50
2019-04-04T13:44:31.365Z,16.60
2019-04-04T13:47:02.717Z,16.60
2019-04-04T13:49:31.326Z,16.70
2019-04-04T13:52:00.511Z,16.70
2019-04-04T13:54:29.945Z,16.70
2019-04-04T13:56:59.201Z,16.70
2019-04-04T13:59:28.409Z,16.60
2019-04-04T14:01:57.601Z,16.60
2019-04-04T14:04:26.979Z,16.40
2019-04-04T14:06:56.173Z,16.40
2019-04-04T14:09:25.341Z,16.40
2019-04-04T14:11:54.470Z,16.40
2019-04-04T14:14:23.668Z,16.30
2019-04-04T14:16:52.874Z,16.20
2019-04-04T14:19:22.094Z,16.10
2019-04-04T14:21:51.266Z,16.00
2019-04-04T14:24:20.458Z,16.20
2019-04-04T14:26:49.714Z,16.00
2019-04-04T14:29:27.183Z,16.00
2019-04-04T14:31:49.733Z,16.10
2019-04-04T14:34:18.920Z,16.20
2019-04-04T14:36:48.098Z,16.10
2019-04-04T14:39:17.303Z,16.10
2019-04-04T14:41:49.282Z,16.30
2019-04-04T14:44:19.653Z,16.20
2019-04-04T14:46:48.821Z,16.20
2019-04-04T14:49:18.007Z,16.10
2019-04-04T14:51:47.214Z,16.10
2019-04-04T14:54:16.549Z,16.10
2019-04-04T14:56:45.699Z,16.10
2019-04-04T14:59:14.865Z,16.00
2019-04-04T15:01:44.037Z,16.10
2019-04-04T15:04:13.235Z,16.20
2019-04-04T15:06:42.418Z,16.30
2019-04-04T15:09:11.610Z,16.10
2019-04-04T15:11:40.837Z,16.00
2019-04-04T15:14:10.015Z,15.80
2019-04-04T15:16:39.289Z,15.90
2019-04-04T15:19:08.484Z,15.70
2019-04-04T15:21:37.707Z,15.60
2019-04-04T15:24:06.826Z,15.60
2019-04-04T15:26:36.009Z,15.40
2019-04-04T15:29:05.206Z,15.30
2019-04-04T15:31:34.402Z,15.20
2019-04-04T15:34:03.604Z,15.20
2019-04-04T15:36:32.779Z,15.20
2019-04-04T15:39:01.962Z,14.90
2019-04-04T15:41:36.756Z,14.80
2019-04-04T15:44:01.957Z,14.90
2019-04-04T15:46:31.169Z,14.90
2019-04-04T15:49:00.338Z,14.90
2019-04-04T15:51:29.726Z,14.90
2019-04-04T15:53:58.954Z,14.90
2019-04-04T15:56:28.343Z,14.70
2019-04-04T15:58:57.529Z,14.60
2019-04-04T16:01:26.787Z,14.50
2019-04-04T16:03:55.998Z,14.70
2019-04-04T16:06:26.038Z,14.70
2019-04-04T16:08:55.138Z,14.40
2019-04-04T16:11:24.317Z,14.40
2019-04-04T16:13:53.490Z,14.10
2019-04-04T16:16:22.705Z,14.00
2019-04-04T16:18:51.886Z,13.80
2019-04-04T16:21:21.073Z,13.70
2019-04-04T16:23:50.331Z,13.70
2019-04-04T16:26:19.509Z,13.70
2019-04-04T16:28:48.686Z,13.60
2019-04-04T16:31:17.874Z,13.40
2019-04-04T16:33:47.062Z,13.20
2019-04-04T16:36:16.239Z,13.00
2019-04-04T16:38:45.454Z,12.70
2019-04-04T16:41:14.767Z,12.70
2019-04-04T16:43:43.934Z,12.60
2019-04-04T16:46:13.126Z,12.50
2019-04-04T16:48:42.296Z,12.30
2019-04-04T16:51:11.474Z,12.30
2019-04-04T16:53:40.677Z,12.10
2019-04-04T16:56:09.842Z,12.00
2019-04-04T16:58:39.013Z,11.90
2019-04-04T17:01:08.237Z,11.90
2019-04-04T17:03:37.435Z,11.70
2019-04-04T17:06:06.607Z,11.60
2019-04-04T17:08:35.797Z,11.50
2019-04-04T17:11:04.969Z,11.40
2019-04-04T17:13:34.174Z,11.20
2019-04-04T17:16:03.379Z,11.10
2019-04-04T17:18:32.549Z,11.00
2019-04-04T17:21:01.728Z,11.00
2019-04-04T17:23:30.946Z,11.00
2019-04-04T17:26:00.118Z,11.00
2019-04-04T17:28:29.618Z,10.90
2019-04-04T17:30:58.913Z,10.90
2019-04-04T17:33:28.768Z,10.70
2019-04-04T17:35:58.086Z,10.70
2019-04-04T17:38:27.291Z,10.60
2019-04-04T17:40:56.474Z,10.50
2019-04-04T17:43:25.613Z,10.40
2019-04-04T17:45:54.774Z,10.30
2019-04-04T17:48:24.361Z,10.30
2019-04-04T17:50:53.864Z,10.10
2019-04-04T17:53:23.708Z,10.00
2019-04-04T17:55:54.894Z,10.00
2019-04-04T17:58:24.112Z,10.00
2019-04-04T18:00:53.741Z,9.90
2019-04-04T18:03:22.958Z,9.80
2019-04-04T18:05:52.059Z,9.70
2019-04-04T18:08:21.241Z,9.60
2019-04-04T18:10:50.438Z,9.60
2019-04-04T18:13:19.537Z,9.50
2019-04-04T18:15:48.767Z,9.40
2019-04-04T18:18:17.947Z,9.40
2019-04-04T18:20:47.138Z,9.30
2019-04-04T18:23:16.376Z,9.30
2019-04-04T18:25:45.545Z,9.20
2019-04-04T18:28:14.708Z,9.20
2019-04-04T18:30:43.906Z,9.20
2019-04-04T18:33:13.110Z,9.20
2019-04-04T18:35:42.232Z,9.10
2019-04-04T18:38:11.626Z,9.00
2019-04-04T18:40:40.864Z,9.00
2019-04-04T18:43:10.167Z,8.90
2019-04-04T18:45:39.402Z,8.80
2019-04-04T18:48:08.573Z,8.80
2019-04-04T18:50:37.694Z,8.80
2019-04-04T18:53:06.800Z,8.80
2019-04-04T18:55:36.006Z,8.70
2019-04-04T18:58:05.186Z,8.60
2019-04-04T19:00:34.301Z,8.60
2019-04-04T19:03:03.482Z,8.70
2019-04-04T19:05:32.610Z,8.60
2019-04-04T19:08:01.726Z,8.60
2019-04-04T19:10:30.912Z,8.60
2019-04-04T19:13:05.534Z,8.60
2019-04-04T19:15:30.927Z,8.60
2019-04-04T19:18:00.109Z,8.60
2019-04-04T19:20:29.506Z,8.60
2019-04-04T19:22:58.598Z,8.60
2019-04-04T19:25:27.708Z,8.50
2019-04-04T19:27:57.018Z,8.50
2019-04-04T19:30:26.123Z,8.40
2019-04-04T19:32:55.550Z,8.50
2019-04-04T19:35:24.690Z,8.40
2019-04-04T19:38:00.077Z,8.50
2019-04-04T19:40:24.673Z,8.40
2019-04-04T19:42:53.849Z,8.40
2019-04-04T19:45:23.030Z,8.30
2019-04-04T19:47:52.169Z,8.30
2019-04-04T19:50:21.346Z,8.30
2019-04-04T19:52:50.610Z,8.40
2019-04-04T19:55:19.785Z,8.40
2019-04-04T19:57:48.922Z,8.40
2019-04-04T20:00:18.899Z,8.30
2019-04-04T20:02:48.092Z,8.30
2019-04-04T20:05:17.262Z,8.30
2019-04-04T20:07:47.033Z,8.30
2019-04-04T20:10:16.154Z,8.30
2019-04-04T20:12:45.317Z,8.40
2019-04-04T20:15:14.454Z,8.40
2019-04-04T20:17:46.034Z,8.40
2019-04-04T20:20:15.150Z,8.30
2019-04-04T20:22:44.497Z,8.40
2019-04-04T20:25:13.689Z,8.40
2019-04-04T20:27:54.101Z,8.40
2019-04-04T20:30:14.873Z,8.30
2019-04-04T20:32:44.011Z,8.30
2019-04-04T20:35:13.318Z,8.40
2019-04-04T20:37:42.416Z,8.40
2019-04-04T20:40:11.579Z,8.30
2019-04-04T20:42:40.770Z,8.40
2019-04-04T20:45:09.949Z,8.30
2019-04-04T20:47:39.037Z,8.30
2019-04-04T20:50:08.150Z,8.20
2019-04-04T20:52:37.307Z,8.20
2019-04-04T20:55:06.586Z,8.20
2019-04-04T20:57:35.696Z,8.20
2019-04-04T21:00:05.031Z,8.30
2019-04-04T21:02:34.209Z,8.30
2019-04-04T21:05:03.381Z,8.20
2019-04-04T21:07:32.619Z,8.10
2019-04-04T21:10:01.783Z,8.00
2019-04-04T21:12:30.964Z,8.00
2019-04-04T21:15:00.168Z,8.00
2019-04-04T21:17:29.638Z,8.00
2019-04-04T21:19:58.806Z,7.90
2019-04-04T21:22:28.261Z,7.90
2019-04-04T21:24:57.394Z,7.90
2019-04-04T21:27:26.586Z,7.90
2019-04-04T21:29:55.750Z,7.90
2019-04-04T21:32:24.844Z,8.00
2019-04-04T21:34:54.126Z,8.10
2019-04-04T21:37:23.308Z,8.10
2019-04-04T21:39:52.496Z,8.10
2019-04-04T21:42:21.661Z,8.10
2019-04-04T21:44:50.801Z,8.10
2019-04-04T21:47:19.969Z,8.10
2019-04-04T21:49:49.141Z,8.10
2019-04-04T21:52:18.314Z,8.00
2019-04-04T21:54:47.488Z,8.00
2019-04-04T21:57:16.670Z,8.10
2019-04-04T21:59:45.852Z,8.10
2019-04-04T22:02:15.026Z,8.10
2019-04-04T22:04:44.130Z,8.10
2019-04-04T22:07:13.246Z,8.10
2019-04-04T22:09:42.494Z,8.10
2019-04-04T22:12:11.673Z,8.10
2019-04-04T22:14:40.775Z,8.10
2019-04-04T22:17:09.961Z,8.10
2019-04-04T22:19:39.126Z,8.10
2019-04-04T22:22:08.253Z,8.10
2019-04-04T22:24:37.419Z,8.10
2019-04-04T22:27:06.610Z,8.10
2019-04-04T22:29:35.869Z,8.10
2019-04-04T22:32:05.050Z,8.10
2019-04-04T22:34:34.238Z,8.10
2019-04-04T22:37:03.411Z,8.10
2019-04-04T22:39:32.587Z,8.10
2019-04-04T22:42:01.765Z,8.00
2019-04-04T22:44:35.194Z,8.00
2019-04-04T22:47:01.746Z,8.10
2019-04-04T22:49:30.909Z,8.00
2019-04-04T22:52:00.089Z,8.00
2019-04-04T22:54:29.349Z,8.00
2019-04-04T22:56:58.529Z,8.10
2019-04-04T22:59:27.965Z,8.10
2019-04-04T23:01:57.138Z,8.10
2019-04-04T23:04:26.559Z,8.10
2019-04-04T23:06:55.696Z,8.10
2019-04-04T23:09:24.876Z,8.20
2019-04-04T23:11:54.058Z,8.20
2019-04-04T23:14:23.223Z,8.20
2019-04-04T23:16:52.432Z,8.10
2019-04-04T23:19:21.609Z,8.20
2019-04-04T23:21:50.778Z,8.20
2019-04-04T23:24:19.954Z,8.10
2019-04-04T23:26:49.122Z,8.20
2019-04-04T23:29:18.210Z,8.10
2019-04-04T23:31:47.322Z,8.10
2019-04-04T23:34:16.494Z,8.20
2019-04-04T23:36:45.655Z,8.20
2019-04-04T23:39:14.873Z,8.20
2019-04-04T23:41:43.973Z,8.30
2019-04-04T23:44:13.096Z,8.30
2019-04-04T23:46:42.249Z,8.30
2019-04-04T23:49:11.417Z,8.30
2019-04-04T23:51:40.853Z,8.30
2019-04-04T23:54:09.946Z,8.30
2019-04-04T23:56:39.117Z,8.30
2019-04-04T23:59:08.301Z,8.30
